DFC122 LEBL-LEPA
Flight info
| Callsign | DFC122 |
|---|---|
| Flight time | N/A |
| Altitude | 19000 |
| Route | LARPA N859 TOLSO |
| Aircraft | B737/M-SDE2E3FGHIRWXY/LB1 |
Departure
| Time | 2026-04-30 22:23 |
|---|---|
| Airport | Josep Tarradellas Barcelona-El Prat Airport (LEBL) |
Arrival
| Time | N/A |
|---|---|
| Airport | Palma de Mallorca Airport (LEPA) |
| Time | Latitude | Longitude | Altitude | Speed | Heading |
|---|---|---|---|---|---|
| 2026-04-30 22:00 | 41.29834 | 2.07051 | 16 ft | 0 kts | 156° |
| 2026-04-30 22:20 | 41.29826 | 2.07056 | 16 ft | 6 kts | 153° |
| 2026-04-30 22:21 | 41.29808 | 2.07106 | 18 ft | 7 kts | 106° |
| 2026-04-30 22:21 | 41.29797 | 2.07167 | 15 ft | 7 kts | 100° |
| 2026-04-30 22:21 | 41.29766 | 2.07210 | 15 ft | 7 kts | 167° |
| 2026-04-30 22:21 | 41.29725 | 2.07174 | 17 ft | 15 kts | 240° |
| 2026-04-30 22:22 | 41.29656 | 2.07055 | 16 ft | 13 kts | 186° |
| 2026-04-30 22:22 | 41.29600 | 2.07090 | 16 ft | 4 kts | 156° |
| 2026-04-30 22:22 | 41.29572 | 2.07106 | 17 ft | 5 kts | 156° |
| 2026-04-30 22:22 | 41.29531 | 2.07130 | 15 ft | 8 kts | 156° |
| 2026-04-30 22:23 | 41.29494 | 2.07191 | 16 ft | 14 kts | 90° |
| 2026-04-30 22:23 | 41.29650 | 2.07681 | 19 ft | 101 kts | 65° |
| 2026-04-30 22:23 | 41.30037 | 2.08829 | 129 ft | 164 kts | 66° |
| 2026-04-30 22:23 | 41.30547 | 2.10341 | 695 ft | 197 kts | 65° |
| 2026-04-30 22:24 | 41.31144 | 2.12071 | 1519 ft | 211 kts | 66° |
| 2026-04-30 22:24 | 41.31767 | 2.13882 | 2461 ft | 219 kts | 66° |
| 2026-04-30 22:24 | 41.32406 | 2.15743 | 3430 ft | 223 kts | 66° |
| 2026-04-30 22:24 | 41.33107 | 2.17611 | 4366 ft | 230 kts | 56° |
| 2026-04-30 22:25 | 41.34350 | 2.19053 | 5215 ft | 246 kts | 36° |
| 2026-04-30 22:25 | 41.35592 | 2.20641 | 6099 ft | 252 kts | 57° |
| 2026-04-30 22:25 | 41.36602 | 2.22584 | 7024 ft | 259 kts | 54° |
| 2026-04-30 22:25 | 41.37695 | 2.24490 | 8048 ft | 259 kts | 54° |
| 2026-04-30 22:26 | 41.39912 | 2.28315 | 9599 ft | 281 kts | 54° |
| 2026-04-30 22:26 | 41.41146 | 2.30475 | 9402 ft | 295 kts | 51° |
| 2026-04-30 22:26 | 41.42502 | 2.32538 | 9618 ft | 298 kts | 49° |
| 2026-04-30 22:27 | 41.43933 | 2.34576 | 10502 ft | 302 kts | 46° |
| 2026-04-30 22:27 | 41.45475 | 2.36625 | 10885 ft | 328 kts | 46° |
| 2026-04-30 22:27 | 41.48874 | 2.41361 | 11459 ft | 376 kts | 48° |
| 2026-04-30 22:28 | 41.51900 | 2.47085 | 13028 ft | 384 kts | 74° |
| 2026-04-30 22:28 | 41.52250 | 2.50624 | 13872 ft | 388 kts | 92° |
| 2026-04-30 22:29 | 41.51751 | 2.61635 | 15990 ft | 403 kts | 94° |
| 2026-04-30 22:29 | 41.51595 | 2.65396 | 16715 ft | 407 kts | 94° |
| 2026-04-30 22:30 | 41.51000 | 2.80809 | 19080 ft | 422 kts | 94° |
| 2026-04-30 22:31 | 41.49360 | 2.92567 | 19180 ft | 450 kts | 124° |
| 2026-04-30 22:32 | 41.41677 | 2.98876 | 19181 ft | 440 kts | 170° |
| 2026-04-30 22:32 | 41.35678 | 2.99511 | 19160 ft | 435 kts | 194° |
| 2026-04-30 22:33 | 41.27835 | 2.93741 | 19156 ft | 432 kts | 215° |
| 2026-04-30 22:33 | 41.22819 | 2.89329 | 19145 ft | 432 kts | 214° |
| 2026-04-30 22:34 | 41.15273 | 2.82791 | 19154 ft | 431 kts | 214° |
| 2026-04-30 22:35 | 41.10244 | 2.78453 | 19152 ft | 431 kts | 214° |
| 2026-04-30 22:36 | 41.00230 | 2.69834 | 19152 ft | 430 kts | 214° |
| 2026-04-30 22:36 | 40.97722 | 2.67679 | 19154 ft | 430 kts | 214° |
| 2026-04-30 22:37 | 40.90282 | 2.61053 | 19152 ft | 429 kts | 217° |
| 2026-04-30 22:37 | 40.87868 | 2.58725 | 19148 ft | 429 kts | 217° |
| 2026-04-30 22:37 | 40.83039 | 2.54077 | 19148 ft | 429 kts | 217° |
| 2026-04-30 22:38 | 40.78226 | 2.49508 | 19145 ft | 428 kts | 217° |
| 2026-04-30 22:38 | 40.73370 | 2.44931 | 19148 ft | 428 kts | 217° |
| 2026-04-30 22:39 | 40.70944 | 2.42647 | 19145 ft | 428 kts | 217° |
| 2026-04-30 22:39 | 40.63387 | 2.36456 | 19135 ft | 432 kts | 196° |
| 2026-04-30 22:40 | 40.54458 | 2.37707 | 19144 ft | 441 kts | 166° |
| 2026-04-30 22:41 | 40.45988 | 2.42315 | 19141 ft | 446 kts | 148° |
| 2026-04-30 22:41 | 40.40791 | 2.46787 | 19133 ft | 446 kts | 149° |
| 2026-04-30 22:42 | 40.30294 | 2.55417 | 19129 ft | 446 kts | 150° |
| 2026-04-30 22:43 | 40.25251 | 2.59524 | 19106 ft | 405 kts | 150° |
| 2026-04-30 22:43 | 40.20609 | 2.63296 | 19130 ft | 389 kts | 150° |
| 2026-04-30 22:44 | 40.16078 | 2.66971 | 18847 ft | 372 kts | 151° |
| 2026-04-30 22:45 | 40.07790 | 2.73677 | 17684 ft | 341 kts | 151° |
| 2026-04-30 22:45 | 40.03792 | 2.76902 | 16840 ft | 335 kts | 151° |
| 2026-04-30 22:46 | 39.99850 | 2.80079 | 16014 ft | 330 kts | 151° |
| 2026-04-30 22:47 | 39.91844 | 2.84903 | 14400 ft | 311 kts | 186° |
| 2026-04-30 22:47 | 39.87602 | 2.84097 | 13546 ft | 307 kts | 191° |
| 2026-04-30 22:48 | 39.83404 | 2.83266 | 12696 ft | 303 kts | 190° |
| 2026-04-30 22:49 | 39.77555 | 2.81593 | 12130 ft | 274 kts | 216° |
| 2026-04-30 22:49 | 39.74108 | 2.75823 | 11112 ft | 269 kts | 235° |
| 2026-04-30 22:50 | 39.69881 | 2.67802 | 9700 ft | 270 kts | 234° |
| 2026-04-30 22:51 | 39.67762 | 2.63786 | 9015 ft | 268 kts | 234° |
| 2026-04-30 22:51 | 39.66015 | 2.60477 | 8450 ft | 267 kts | 234° |
| 2026-04-30 22:52 | 39.64627 | 2.57851 | 8017 ft | 265 kts | 234° |
| 2026-04-30 22:52 | 39.62541 | 2.53908 | 7342 ft | 265 kts | 234° |
| 2026-04-30 22:53 | 39.60795 | 2.50610 | 6748 ft | 266 kts | 234° |
| 2026-04-30 22:53 | 39.58691 | 2.46641 | 6048 ft | 266 kts | 233° |
| 2026-04-30 22:53 | 39.57641 | 2.44665 | 5711 ft | 265 kts | 233° |
| 2026-04-30 22:54 | 39.55122 | 2.41398 | 5090 ft | 252 kts | 193° |
| 2026-04-30 22:55 | 39.50615 | 2.43484 | 4327 ft | 239 kts | 143° |
| 2026-04-30 22:55 | 39.47966 | 2.46062 | 3816 ft | 236 kts | 143° |
| 2026-04-30 22:56 | 39.45873 | 2.49127 | 3321 ft | 229 kts | 107° |
| 2026-04-30 22:56 | 39.47075 | 2.54763 | 2638 ft | 223 kts | 60° |
| 2026-04-30 22:57 | 39.48639 | 2.58154 | 2164 ft | 217 kts | 60° |
| 2026-04-30 22:57 | 39.50103 | 2.61267 | 1751 ft | 185 kts | 60° |
| 2026-04-30 22:58 | 39.51315 | 2.63844 | 1402 ft | 154 kts | 61° |
| 2026-04-30 22:59 | 39.52782 | 2.66966 | 815 ft | 132 kts | 59° |
| 2026-04-30 22:59 | 39.54209 | 2.69998 | 261 ft | 129 kts | 59° |